Terminal Aerodrome Forecast
Issued by NWS

Home | Current Version | Previous Version | Text Only | Print | Product List | Glossary On
Versions: 1 2 3 4 5 6 7 8 9 10 11 12
000
FTUS44 KEPZ 030524
TAFDMN
TAF
KDMN 030524Z 0306/0406 27010KT P6SM VCSH FEW070 SCT110 BKN150
     FM031200 25006KT P6SM SCT070 BKN150
     FM032100 25011G18KT P6SM VCTS FEW070CB BKN120
     FM040400 28010KT P6SM VCSH SCT070 BKN110 OVC150=

USA.gov is the U.S. government's official web portal to all federal, state and local government web resources and services.